sensor_id;sensor_type;location;lat;lon;timestamp;temperature;humidity
37646;DHT22;23489;49.600;6.138;2023-07-31T00:01:39;17.90;99.90
37646;DHT22;23489;49.600;6.138;2023-07-31T00:04:05;17.80;99.90
37646;DHT22;23489;49.600;6.138;2023-07-31T00:06:31;17.80;99.90
37646;DHT22;23489;49.600;6.138;2023-07-31T00:08:56;17.80;99.90
37646;DHT22;23489;49.600;6.138;2023-07-31T00:11:22;17.80;99.90
37646;DHT22;23489;49.600;6.138;2023-07-31T00:13:47;17.80;99.90
37646;DHT22;23489;49.600;6.138;2023-07-31T00:16:13;17.70;99.90
37646;DHT22;23489;49.600;6.138;2023-07-31T00:18:39;17.70;99.90
37646;DHT22;23489;49.600;6.138;2023-07-31T00:21:04;17.70;99.90
37646;DHT22;23489;49.600;6.138;2023-07-31T00:23:30;17.80;99.90
37646;DHT22;23489;49.600;6.138;2023-07-31T00:25:55;17.70;99.90
37646;DHT22;23489;49.600;6.138;2023-07-31T00:28:21;17.70;99.90
37646;DHT22;23489;49.600;6.138;2023-07-31T00:30:46;17.70;99.90
37646;DHT22;23489;49.600;6.138;2023-07-31T00:33:12;17.70;99.90
37646;DHT22;23489;49.600;6.138;2023-07-31T00:35:37;17.70;99.90
37646;DHT22;23489;49.600;6.138;2023-07-31T00:38:03;17.70;99.90
37646;DHT22;23489;49.600;6.138;2023-07-31T00:40:29;17.60;99.90
37646;DHT22;23489;49.600;6.138;2023-07-31T00:42:54;17.70;99.90
37646;DHT22;23489;49.600;6.138;2023-07-31T00:45:21;17.70;99.90
37646;DHT22;23489;49.600;6.138;2023-07-31T00:47:49;17.70;99.90
37646;DHT22;23489;49.600;6.138;2023-07-31T00:50:14;17.60;99.90
37646;DHT22;23489;49.600;6.138;2023-07-31T00:52:40;17.60;99.90
37646;DHT22;23489;49.600;6.138;2023-07-31T00:55:06;17.60;99.90
37646;DHT22;23489;49.600;6.138;2023-07-31T00:57:32;17.60;99.90
37646;DHT22;23489;49.600;6.138;2023-07-31T00:59:58;17.50;99.90
37646;DHT22;23489;49.600;6.138;2023-07-31T01:02:24;17.50;99.90
37646;DHT22;23489;49.600;6.138;2023-07-31T01:04:51;17.60;99.90
37646;DHT22;23489;49.600;6.138;2023-07-31T01:07:31;17.50;99.90
37646;DHT22;23489;49.600;6.138;2023-07-31T01:10:08;17.50;99.90
37646;DHT22;23489;49.600;6.138;2023-07-31T01:12:38;17.50;99.90
37646;DHT22;23489;49.600;6.138;2023-07-31T01:15:08;17.50;99.90
37646;DHT22;23489;49.600;6.138;2023-07-31T01:17:38;17.50;99.90
37646;DHT22;23489;49.600;6.138;2023-07-31T01:20:09;17.40;99.90
37646;DHT22;23489;49.600;6.138;2023-07-31T01:23:08;17.40;99.90
37646;DHT22;23489;49.600;6.138;2023-07-31T01:26:00;17.40;99.90
37646;DHT22;23489;49.600;6.138;2023-07-31T01:29:00;17.40;99.90
37646;DHT22;23489;49.600;6.138;2023-07-31T01:31:28;17.40;99.90
37646;DHT22;23489;49.600;6.138;2023-07-31T01:33:57;17.30;99.90
37646;DHT22;23489;49.600;6.138;2023-07-31T01:36:25;17.30;99.90
37646;DHT22;23489;49.600;6.138;2023-07-31T01:38:50;17.30;99.90
37646;DHT22;23489;49.600;6.138;2023-07-31T01:41:17;17.40;99.90
37646;DHT22;23489;49.600;6.138;2023-07-31T01:43:43;17.40;99.90
37646;DHT22;23489;49.600;6.138;2023-07-31T01:46:09;17.40;99.90
37646;DHT22;23489;49.600;6.138;2023-07-31T01:48:34;17.40;99.90
37646;DHT22;23489;49.600;6.138;2023-07-31T01:51:02;17.30;99.90
37646;DHT22;23489;49.600;6.138;2023-07-31T01:53:31;17.30;99.90
37646;DHT22;23489;49.600;6.138;2023-07-31T01:55:57;17.30;99.90
37646;DHT22;23489;49.600;6.138;2023-07-31T01:58:23;17.30;99.90
37646;DHT22;23489;49.600;6.138;2023-07-31T02:00:48;17.30;99.90
37646;DHT22;23489;49.600;6.138;2023-07-31T02:03:14;17.30;99.90
37646;DHT22;23489;49.600;6.138;2023-07-31T02:05:47;17.30;99.90
37646;DHT22;23489;49.600;6.138;2023-07-31T02:08:13;17.20;99.90
37646;DHT22;23489;49.600;6.138;2023-07-31T02:10:39;17.20;99.90
37646;DHT22;23489;49.600;6.138;2023-07-31T02:13:04;17.20;99.90
37646;DHT22;23489;49.600;6.138;2023-07-31T02:15:30;17.20;99.90
37646;DHT22;23489;49.600;6.138;2023-07-31T02:17:56;17.20;99.90
37646;DHT22;23489;49.600;6.138;2023-07-31T02:20:22;17.20;99.90
37646;DHT22;23489;49.600;6.138;2023-07-31T02:22:48;17.20;99.90
37646;DHT22;23489;49.600;6.138;2023-07-31T02:25:13;17.30;99.90
37646;DHT22;23489;49.600;6.138;2023-07-31T02:27:39;17.20;99.90
37646;DHT22;23489;49.600;6.138;2023-07-31T02:30:05;17.30;99.90
37646;DHT22;23489;49.600;6.138;2023-07-31T02:32:31;17.20;99.90
37646;DHT22;23489;49.600;6.138;2023-07-31T02:34:56;17.30;99.90
37646;DHT22;23489;49.600;6.138;2023-07-31T02:37:22;17.30;99.90
37646;DHT22;23489;49.600;6.138;2023-07-31T02:39:48;17.30;99.90
37646;DHT22;23489;49.600;6.138;2023-07-31T02:42:14;17.20;99.90
37646;DHT22;23489;49.600;6.138;2023-07-31T02:44:40;17.20;99.90
37646;DHT22;23489;49.600;6.138;2023-07-31T02:47:05;17.20;99.90
37646;DHT22;23489;49.600;6.138;2023-07-31T02:49:33;17.30;99.90
37646;DHT22;23489;49.600;6.138;2023-07-31T02:51:58;17.30;99.90
37646;DHT22;23489;49.600;6.138;2023-07-31T02:54:24;17.30;99.90
37646;DHT22;23489;49.600;6.138;2023-07-31T02:56:50;17.20;99.90
37646;DHT22;23489;49.600;6.138;2023-07-31T02:59:17;17.20;99.90
37646;DHT22;23489;49.600;6.138;2023-07-31T03:01:42;17.20;99.90
37646;DHT22;23489;49.600;6.138;2023-07-31T03:04:08;17.20;99.90
37646;DHT22;23489;49.600;6.138;2023-07-31T03:06:34;17.20;99.90
37646;DHT22;23489;49.600;6.138;2023-07-31T03:08:59;17.30;99.90
37646;DHT22;23489;49.600;6.138;2023-07-31T03:11:25;17.30;99.90
37646;DHT22;23489;49.600;6.138;2023-07-31T03:13:50;17.20;99.90
37646;DHT22;23489;49.600;6.138;2023-07-31T03:16:16;17.20;99.90
37646;DHT22;23489;49.600;6.138;2023-07-31T03:18:42;17.20;99.90
37646;DHT22;23489;49.600;6.138;2023-07-31T03:21:07;17.20;99.90
37646;DHT22;23489;49.600;6.138;2023-07-31T03:23:33;17.20;99.90
37646;DHT22;23489;49.600;6.138;2023-07-31T03:26:07;17.20;99.90
37646;DHT22;23489;49.600;6.138;2023-07-31T03:28:33;17.20;99.90
37646;DHT22;23489;49.600;6.138;2023-07-31T03:30:59;17.20;99.90
37646;DHT22;23489;49.600;6.138;2023-07-31T03:33:25;17.10;99.90
37646;DHT22;23489;49.600;6.138;2023-07-31T03:35:51;17.10;99.90
37646;DHT22;23489;49.600;6.138;2023-07-31T03:38:17;17.10;99.90
37646;DHT22;23489;49.600;6.138;2023-07-31T03:40:42;17.10;99.90
37646;DHT22;23489;49.600;6.138;2023-07-31T03:43:08;17.10;99.90
37646;DHT22;23489;49.600;6.138;2023-07-31T03:45:34;17.10;99.90
37646;DHT22;23489;49.600;6.138;2023-07-31T03:48:00;17.00;99.90
37646;DHT22;23489;49.600;6.138;2023-07-31T03:50:25;17.00;99.90
37646;DHT22;23489;49.600;6.138;2023-07-31T03:52:52;17.00;99.90
37646;DHT22;23489;49.600;6.138;2023-07-31T03:55:17;16.90;99.90
37646;DHT22;23489;49.600;6.138;2023-07-31T03:57:43;16.90;99.90
37646;DHT22;23489;49.600;6.138;2023-07-31T04:00:09;16.90;99.90
37646;DHT22;23489;49.600;6.138;2023-07-31T04:02:38;16.90;99.90
37646;DHT22;23489;49.600;6.138;2023-07-31T04:05:04;16.80;99.90
37646;DHT22;23489;49.600;6.138;2023-07-31T04:07:29;16.70;99.90
37646;DHT22;23489;49.600;6.138;2023-07-31T04:09:56;16.70;99.90
37646;DHT22;23489;49.600;6.138;2023-07-31T04:12:22;16.70;99.90
37646;DHT22;23489;49.600;6.138;2023-07-31T04:14:47;16.60;99.90
37646;DHT22;23489;49.600;6.138;2023-07-31T04:17:13;16.60;99.90
37646;DHT22;23489;49.600;6.138;2023-07-31T04:19:39;16.50;99.90
37646;DHT22;23489;49.600;6.138;2023-07-31T04:22:04;16.50;99.90
37646;DHT22;23489;49.600;6.138;2023-07-31T04:24:30;16.50;99.90
37646;DHT22;23489;49.600;6.138;2023-07-31T04:26:56;16.50;99.90
37646;DHT22;23489;49.600;6.138;2023-07-31T04:29:21;16.50;99.90
37646;DHT22;23489;49.600;6.138;2023-07-31T04:31:48;16.50;99.90
37646;DHT22;23489;49.600;6.138;2023-07-31T04:34:14;16.50;99.90
37646;DHT22;23489;49.600;6.138;2023-07-31T04:36:39;16.50;99.90
37646;DHT22;23489;49.600;6.138;2023-07-31T04:39:05;16.50;99.90
37646;DHT22;23489;49.600;6.138;2023-07-31T04:41:30;16.50;99.90
37646;DHT22;23489;49.600;6.138;2023-07-31T04:43:56;16.50;99.90
37646;DHT22;23489;49.600;6.138;2023-07-31T04:46:22;16.50;99.90
37646;DHT22;23489;49.600;6.138;2023-07-31T04:48:47;16.50;99.90
37646;DHT22;23489;49.600;6.138;2023-07-31T04:51:13;16.60;99.90
37646;DHT22;23489;49.600;6.138;2023-07-31T04:53:39;16.60;99.90
37646;DHT22;23489;49.600;6.138;2023-07-31T04:56:04;16.60;99.90
37646;DHT22;23489;49.600;6.138;2023-07-31T04:58:30;16.60;99.90
37646;DHT22;23489;49.600;6.138;2023-07-31T05:00:55;16.60;99.90
37646;DHT22;23489;49.600;6.138;2023-07-31T05:03:21;16.60;99.90
37646;DHT22;23489;49.600;6.138;2023-07-31T05:05:47;16.70;99.90
37646;DHT22;23489;49.600;6.138;2023-07-31T05:08:12;16.60;99.90
37646;DHT22;23489;49.600;6.138;2023-07-31T05:10:38;16.70;99.90
37646;DHT22;23489;49.600;6.138;2023-07-31T05:13:03;16.70;99.90
37646;DHT22;23489;49.600;6.138;2023-07-31T05:15:29;16.80;99.90
37646;DHT22;23489;49.600;6.138;2023-07-31T05:17:55;16.90;99.90
37646;DHT22;23489;49.600;6.138;2023-07-31T05:20:21;17.00;99.90
37646;DHT22;23489;49.600;6.138;2023-07-31T05:22:46;17.10;99.90
37646;DHT22;23489;49.600;6.138;2023-07-31T05:25:12;17.10;99.90
37646;DHT22;23489;49.600;6.138;2023-07-31T05:27:38;17.00;99.90
37646;DHT22;23489;49.600;6.138;2023-07-31T05:30:04;17.10;99.90
37646;DHT22;23489;49.600;6.138;2023-07-31T05:32:30;17.10;99.90
37646;DHT22;23489;49.600;6.138;2023-07-31T05:34:55;17.20;99.90
37646;DHT22;23489;49.600;6.138;2023-07-31T05:37:22;17.30;99.90
37646;DHT22;23489;49.600;6.138;2023-07-31T05:39:48;17.30;99.90
37646;DHT22;23489;49.600;6.138;2023-07-31T05:42:13;17.40;99.90
37646;DHT22;23489;49.600;6.138;2023-07-31T05:44:39;17.70;99.90
37646;DHT22;23489;49.600;6.138;2023-07-31T05:47:05;17.90;99.90
37646;DHT22;23489;49.600;6.138;2023-07-31T05:49:30;18.30;99.90
37646;DHT22;23489;49.600;6.138;2023-07-31T05:51:56;18.50;99.90
37646;DHT22;23489;49.600;6.138;2023-07-31T05:54:21;18.80;99.90
37646;DHT22;23489;49.600;6.138;2023-07-31T05:56:47;18.80;99.90
37646;DHT22;23489;49.600;6.138;2023-07-31T05:59:13;18.90;99.90
37646;DHT22;23489;49.600;6.138;2023-07-31T06:01:39;19.10;99.90
37646;DHT22;23489;49.600;6.138;2023-07-31T06:04:05;19.30;99.90
37646;DHT22;23489;49.600;6.138;2023-07-31T06:06:30;19.60;99.90
37646;DHT22;23489;49.600;6.138;2023-07-31T06:08:56;19.80;99.90
37646;DHT22;23489;49.600;6.138;2023-07-31T06:11:22;19.80;99.90
37646;DHT22;23489;49.600;6.138;2023-07-31T06:13:48;19.70;99.90
37646;DHT22;23489;49.600;6.138;2023-07-31T06:16:15;19.70;99.90
37646;DHT22;23489;49.600;6.138;2023-07-31T06:18:41;19.60;99.90
37646;DHT22;23489;49.600;6.138;2023-07-31T06:21:08;19.60;99.90
37646;DHT22;23489;49.600;6.138;2023-07-31T06:23:34;19.50;99.90
37646;DHT22;23489;49.600;6.138;2023-07-31T06:25:59;19.50;99.90
37646;DHT22;23489;49.600;6.138;2023-07-31T06:28:29;19.40;99.90
37646;DHT22;23489;49.600;6.138;2023-07-31T06:30:55;19.30;99.90
37646;DHT22;23489;49.600;6.138;2023-07-31T06:33:21;19.30;99.90
37646;DHT22;23489;49.600;6.138;2023-07-31T06:35:46;19.40;99.90
37646;DHT22;23489;49.600;6.138;2023-07-31T06:38:12;19.60;99.90
37646;DHT22;23489;49.600;6.138;2023-07-31T06:40:37;19.60;99.90
37646;DHT22;23489;49.600;6.138;2023-07-31T06:43:03;19.70;99.90
37646;DHT22;23489;49.600;6.138;2023-07-31T06:45:36;19.50;99.90
37646;DHT22;23489;49.600;6.138;2023-07-31T06:48:02;19.50;99.90
37646;DHT22;23489;49.600;6.138;2023-07-31T06:50:32;19.40;99.90
37646;DHT22;23489;49.600;6.138;2023-07-31T06:52:58;19.60;99.90
37646;DHT22;23489;49.600;6.138;2023-07-31T06:55:25;19.60;99.90
37646;DHT22;23489;49.600;6.138;2023-07-31T06:57:58;20.00;99.90
37646;DHT22;23489;49.600;6.138;2023-07-31T07:00:24;21.10;99.90
37646;DHT22;23489;49.600;6.138;2023-07-31T07:02:50;22.80;99.90
37646;DHT22;23489;49.600;6.138;2023-07-31T07:05:16;24.50;99.90
37646;DHT22;23489;49.600;6.138;2023-07-31T07:07:42;24.90;99.90
37646;DHT22;23489;49.600;6.138;2023-07-31T07:10:08;24.10;99.90
37646;DHT22;23489;49.600;6.138;2023-07-31T07:12:34;23.70;99.90
37646;DHT22;23489;49.600;6.138;2023-07-31T07:15:00;23.60;99.90
37646;DHT22;23489;49.600;6.138;2023-07-31T07:17:27;24.20;99.90
37646;DHT22;23489;49.600;6.138;2023-07-31T07:19:53;25.30;99.90
37646;DHT22;23489;49.600;6.138;2023-07-31T07:22:19;26.70;99.90
37646;DHT22;23489;49.600;6.138;2023-07-31T07:24:45;27.90;99.90
37646;DHT22;23489;49.600;6.138;2023-07-31T07:27:10;29.00;97.80
37646;DHT22;23489;49.600;6.138;2023-07-31T07:29:38;29.60;95.50
37646;DHT22;23489;49.600;6.138;2023-07-31T07:32:04;29.80;94.70
37646;DHT22;23489;49.600;6.138;2023-07-31T07:34:29;29.20;94.10
37646;DHT22;23489;49.600;6.138;2023-07-31T07:36:55;28.40;94.70
37646;DHT22;23489;49.600;6.138;2023-07-31T07:39:21;27.00;96.20
37646;DHT22;23489;49.600;6.138;2023-07-31T07:41:47;26.50;97.20
37646;DHT22;23489;49.600;6.138;2023-07-31T07:44:13;26.70;97.30
37646;DHT22;23489;49.600;6.138;2023-07-31T07:46:39;27.30;96.50
37646;DHT22;23489;49.600;6.138;2023-07-31T07:49:05;26.90;96.30
37646;DHT22;23489;49.600;6.138;2023-07-31T07:51:30;27.10;96.30
37646;DHT22;23489;49.600;6.138;2023-07-31T07:54:00;26.90;96.40
37646;DHT22;23489;49.600;6.138;2023-07-31T07:56:26;28.10;95.40
37646;DHT22;23489;49.600;6.138;2023-07-31T07:58:53;28.30;94.90
37646;DHT22;23489;49.600;6.138;2023-07-31T08:01:19;28.70;94.00
37646;DHT22;23489;49.600;6.138;2023-07-31T08:03:44;29.60;92.70
37646;DHT22;23489;49.600;6.138;2023-07-31T08:06:10;30.10;91.90
37646;DHT22;23489;49.600;6.138;2023-07-31T08:08:36;29.40;92.10
37646;DHT22;23489;49.600;6.138;2023-07-31T08:11:02;29.00;92.40
37646;DHT22;23489;49.600;6.138;2023-07-31T08:13:28;28.10;93.00
37646;DHT22;23489;49.600;6.138;2023-07-31T08:15:54;27.40;93.60
37646;DHT22;23489;49.600;6.138;2023-07-31T08:18:19;26.30;94.60
37646;DHT22;23489;49.600;6.138;2023-07-31T08:20:45;25.60;96.00
37646;DHT22;23489;49.600;6.138;2023-07-31T08:23:11;25.20;96.50
37646;DHT22;23489;49.600;6.138;2023-07-31T08:25:37;25.10;97.10
37646;DHT22;23489;49.600;6.138;2023-07-31T08:28:03;24.90;97.80
37646;DHT22;23489;49.600;6.138;2023-07-31T08:30:29;25.00;97.80
37646;DHT22;23489;49.600;6.138;2023-07-31T08:32:55;25.20;97.10
37646;DHT22;23489;49.600;6.138;2023-07-31T08:35:21;25.30;96.80
37646;DHT22;23489;49.600;6.138;2023-07-31T08:37:47;24.80;96.50
37646;DHT22;23489;49.600;6.138;2023-07-31T08:40:12;23.90;97.60
37646;DHT22;23489;49.600;6.138;2023-07-31T08:42:46;23.20;98.70
37646;DHT22;23489;49.600;6.138;2023-07-31T08:45:16;22.90;98.90
37646;DHT22;23489;49.600;6.138;2023-07-31T08:47:47;22.30;99.70
37646;DHT22;23489;49.600;6.138;2023-07-31T08:50:14;22.00;99.90
37646;DHT22;23489;49.600;6.138;2023-07-31T08:52:40;21.90;99.90
37646;DHT22;23489;49.600;6.138;2023-07-31T08:55:06;21.80;99.90
37646;DHT22;23489;49.600;6.138;2023-07-31T08:57:35;21.80;99.90
37646;DHT22;23489;49.600;6.138;2023-07-31T09:00:04;21.80;99.90
37646;DHT22;23489;49.600;6.138;2023-07-31T09:02:38;21.80;99.90
37646;DHT22;23489;49.600;6.138;2023-07-31T09:05:08;21.80;99.90
37646;DHT22;23489;49.600;6.138;2023-07-31T09:07:35;22.00;99.90
37646;DHT22;23489;49.600;6.138;2023-07-31T09:10:02;21.70;99.90
37646;DHT22;23489;49.600;6.138;2023-07-31T09:12:28;21.70;99.90
37646;DHT22;23489;49.600;6.138;2023-07-31T09:14:53;21.90;99.90
37646;DHT22;23489;49.600;6.138;2023-07-31T09:17:30;22.30;99.90
37646;DHT22;23489;49.600;6.138;2023-07-31T09:19:56;22.40;99.90
37646;DHT22;23489;49.600;6.138;2023-07-31T09:22:32;22.80;99.90
37646;DHT22;23489;49.600;6.138;2023-07-31T09:25:23;23.20;99.90
37646;DHT22;23489;49.600;6.138;2023-07-31T09:28:03;23.50;99.90
37646;DHT22;23489;49.600;6.138;2023-07-31T09:30:29;23.50;99.90
37646;DHT22;23489;49.600;6.138;2023-07-31T09:33:03;23.70;99.80
37646;DHT22;23489;49.600;6.138;2023-07-31T09:35:29;23.80;99.70
37646;DHT22;23489;49.600;6.138;2023-07-31T09:37:58;23.90;99.70
37646;DHT22;23489;49.600;6.138;2023-07-31T09:40:35;24.00;99.60
37646;DHT22;23489;49.600;6.138;2023-07-31T09:43:02;24.20;99.10
37646;DHT22;23489;49.600;6.138;2023-07-31T09:45:28;24.20;99.10
37646;DHT22;23489;49.600;6.138;2023-07-31T09:47:55;23.70;99.60
37646;DHT22;23489;49.600;6.138;2023-07-31T09:50:23;23.50;99.90
37646;DHT22;23489;49.600;6.138;2023-07-31T09:52:52;23.20;99.90
37646;DHT22;23489;49.600;6.138;2023-07-31T09:55:19;22.80;99.90
37646;DHT22;23489;49.600;6.138;2023-07-31T09:57:46;22.60;99.90
37646;DHT22;23489;49.600;6.138;2023-07-31T10:00:14;22.50;99.90
37646;DHT22;23489;49.600;6.138;2023-07-31T10:02:41;22.30;99.90
37646;DHT22;23489;49.600;6.138;2023-07-31T10:05:07;21.80;99.90
37646;DHT22;23489;49.600;6.138;2023-07-31T10:07:37;21.60;99.90
37646;DHT22;23489;49.600;6.138;2023-07-31T10:10:05;21.20;99.90
37646;DHT22;23489;49.600;6.138;2023-07-31T10:12:33;21.10;99.90
37646;DHT22;23489;49.600;6.138;2023-07-31T10:15:00;20.80;99.90
37646;DHT22;23489;49.600;6.138;2023-07-31T10:17:26;20.90;99.90
37646;DHT22;23489;49.600;6.138;2023-07-31T10:19:53;20.90;99.90
37646;DHT22;23489;49.600;6.138;2023-07-31T10:22:22;20.90;99.90
37646;DHT22;23489;49.600;6.138;2023-07-31T10:24:48;20.70;99.90
37646;DHT22;23489;49.600;6.138;2023-07-31T10:27:15;20.80;99.90
37646;DHT22;23489;49.600;6.138;2023-07-31T10:29:43;20.80;99.90
37646;DHT22;23489;49.600;6.138;2023-07-31T10:32:09;20.50;99.90
37646;DHT22;23489;49.600;6.138;2023-07-31T10:34:39;20.40;99.90
37646;DHT22;23489;49.600;6.138;2023-07-31T10:37:30;20.10;99.90
37646;DHT22;23489;49.600;6.138;2023-07-31T10:40:16;20.00;99.90
37646;DHT22;23489;49.600;6.138;2023-07-31T10:42:54;20.00;99.90
37646;DHT22;23489;49.600;6.138;2023-07-31T10:45:26;20.00;99.90
37646;DHT22;23489;49.600;6.138;2023-07-31T10:48:04;20.00;99.90
37646;DHT22;23489;49.600;6.138;2023-07-31T10:50:31;20.10;99.90
37646;DHT22;23489;49.600;6.138;2023-07-31T10:52:59;20.10;99.90
37646;DHT22;23489;49.600;6.138;2023-07-31T10:55:38;20.10;99.90
37646;DHT22;23489;49.600;6.138;2023-07-31T10:58:07;19.90;99.90
37646;DHT22;23489;49.600;6.138;2023-07-31T11:00:33;19.70;99.90
37646;DHT22;23489;49.600;6.138;2023-07-31T11:08:15;19.00;99.90
37646;DHT22;23489;49.600;6.138;2023-07-31T11:10:43;19.10;99.90
37646;DHT22;23489;49.600;6.138;2023-07-31T11:13:08;19.30;99.90
37646;DHT22;23489;49.600;6.138;2023-07-31T11:15:34;19.50;99.90
37646;DHT22;23489;49.600;6.138;2023-07-31T11:18:03;19.80;99.90
37646;DHT22;23489;49.600;6.138;2023-07-31T11:20:31;20.10;99.90
37646;DHT22;23489;49.600;6.138;2023-07-31T11:23:08;20.20;99.90
37646;DHT22;23489;49.600;6.138;2023-07-31T11:25:35;20.30;99.90
37646;DHT22;23489;49.600;6.138;2023-07-31T11:28:05;20.40;99.90
37646;DHT22;23489;49.600;6.138;2023-07-31T11:30:31;20.40;99.90
37646;DHT22;23489;49.600;6.138;2023-07-31T11:32:57;20.30;99.90
37646;DHT22;23489;49.600;6.138;2023-07-31T11:35:22;20.20;99.90
37646;DHT22;23489;49.600;6.138;2023-07-31T11:37:48;20.10;99.90
37646;DHT22;23489;49.600;6.138;2023-07-31T11:40:14;20.10;99.90
37646;DHT22;23489;49.600;6.138;2023-07-31T11:42:40;20.10;99.90
37646;DHT22;23489;49.600;6.138;2023-07-31T11:45:07;19.90;99.90
37646;DHT22;23489;49.600;6.138;2023-07-31T11:47:34;19.70;99.90
37646;DHT22;23489;49.600;6.138;2023-07-31T11:50:01;19.50;99.90
37646;DHT22;23489;49.600;6.138;2023-07-31T11:52:30;19.60;99.90
37646;DHT22;23489;49.600;6.138;2023-07-31T11:54:57;19.60;99.90
37646;DHT22;23489;49.600;6.138;2023-07-31T11:57:25;19.30;99.90
37646;DHT22;23489;49.600;6.138;2023-07-31T11:59:52;19.10;99.90
37646;DHT22;23489;49.600;6.138;2023-07-31T12:02:18;19.20;99.90
37646;DHT22;23489;49.600;6.138;2023-07-31T12:04:46;19.10;99.90
37646;DHT22;23489;49.600;6.138;2023-07-31T12:07:12;18.90;99.90
37646;DHT22;23489;49.600;6.138;2023-07-31T12:09:38;18.70;99.90
37646;DHT22;23489;49.600;6.138;2023-07-31T12:12:08;18.20;99.90
37646;DHT22;23489;49.600;6.138;2023-07-31T12:14:34;18.00;99.90
37646;DHT22;23489;49.600;6.138;2023-07-31T12:17:04;17.90;99.90
37646;DHT22;23489;49.600;6.138;2023-07-31T12:19:32;17.90;99.90
37646;DHT22;23489;49.600;6.138;2023-07-31T12:22:11;17.80;99.90
37646;DHT22;23489;49.600;6.138;2023-07-31T12:24:37;17.90;99.90
37646;DHT22;23489;49.600;6.138;2023-07-31T12:27:14;18.00;99.90
37646;DHT22;23489;49.600;6.138;2023-07-31T12:29:43;18.20;99.90
37646;DHT22;23489;49.600;6.138;2023-07-31T12:32:25;18.60;99.90
37646;DHT22;23489;49.600;6.138;2023-07-31T12:34:51;18.90;99.90
37646;DHT22;23489;49.600;6.138;2023-07-31T12:37:17;19.40;99.90
37646;DHT22;23489;49.600;6.138;2023-07-31T12:39:43;19.50;99.90
37646;DHT22;23489;49.600;6.138;2023-07-31T12:42:08;19.60;99.90
37646;DHT22;23489;49.600;6.138;2023-07-31T12:44:34;19.90;99.90
37646;DHT22;23489;49.600;6.138;2023-07-31T12:46:59;20.20;99.90
37646;DHT22;23489;49.600;6.138;2023-07-31T12:49:25;20.60;99.90
37646;DHT22;23489;49.600;6.138;2023-07-31T12:51:50;20.60;99.90
37646;DHT22;23489;49.600;6.138;2023-07-31T12:54:16;20.80;99.90
37646;DHT22;23489;49.600;6.138;2023-07-31T12:56:41;20.70;99.90
37646;DHT22;23489;49.600;6.138;2023-07-31T12:59:07;20.80;99.90
37646;DHT22;23489;49.600;6.138;2023-07-31T13:01:33;20.80;99.90
37646;DHT22;23489;49.600;6.138;2023-07-31T13:03:58;20.80;99.90
37646;DHT22;23489;49.600;6.138;2023-07-31T13:06:25;20.80;99.90
37646;DHT22;23489;49.600;6.138;2023-07-31T13:08:51;20.80;99.90
37646;DHT22;23489;49.600;6.138;2023-07-31T13:11:17;20.80;99.90
37646;DHT22;23489;49.600;6.138;2023-07-31T13:13:42;20.90;99.90
37646;DHT22;23489;49.600;6.138;2023-07-31T13:16:08;21.00;99.90
37646;DHT22;23489;49.600;6.138;2023-07-31T13:18:33;20.80;99.90
37646;DHT22;23489;49.600;6.138;2023-07-31T13:20:59;20.90;99.90
37646;DHT22;23489;49.600;6.138;2023-07-31T13:23:25;20.80;99.90
37646;DHT22;23489;49.600;6.138;2023-07-31T13:25:51;20.80;99.90
37646;DHT22;23489;49.600;6.138;2023-07-31T13:28:18;20.70;99.90
37646;DHT22;23489;49.600;6.138;2023-07-31T13:30:44;20.70;99.90
37646;DHT22;23489;49.600;6.138;2023-07-31T13:33:09;20.60;99.90
37646;DHT22;23489;49.600;6.138;2023-07-31T13:35:35;20.50;99.90
37646;DHT22;23489;49.600;6.138;2023-07-31T13:38:01;20.50;99.90
37646;DHT22;23489;49.600;6.138;2023-07-31T13:40:26;20.60;99.90
37646;DHT22;23489;49.600;6.138;2023-07-31T13:42:52;20.60;99.90
37646;DHT22;23489;49.600;6.138;2023-07-31T13:45:18;20.40;99.90
37646;DHT22;23489;49.600;6.138;2023-07-31T13:47:44;20.40;99.90
37646;DHT22;23489;49.600;6.138;2023-07-31T13:50:10;20.30;99.90
37646;DHT22;23489;49.600;6.138;2023-07-31T13:52:36;20.30;99.90
37646;DHT22;23489;49.600;6.138;2023-07-31T13:55:01;20.20;99.90
37646;DHT22;23489;49.600;6.138;2023-07-31T13:57:27;20.10;99.90
37646;DHT22;23489;49.600;6.138;2023-07-31T13:59:53;19.90;99.90
37646;DHT22;23489;49.600;6.138;2023-07-31T14:02:19;19.80;99.90
37646;DHT22;23489;49.600;6.138;2023-07-31T14:04:44;19.90;99.90
37646;DHT22;23489;49.600;6.138;2023-07-31T14:07:10;19.90;99.90
37646;DHT22;23489;49.600;6.138;2023-07-31T14:09:36;19.90;99.90
37646;DHT22;23489;49.600;6.138;2023-07-31T14:12:02;20.00;99.90
37646;DHT22;23489;49.600;6.138;2023-07-31T14:14:27;20.10;99.90
37646;DHT22;23489;49.600;6.138;2023-07-31T14:16:53;20.10;99.90
37646;DHT22;23489;49.600;6.138;2023-07-31T14:19:18;20.10;99.90
37646;DHT22;23489;49.600;6.138;2023-07-31T14:21:44;20.30;99.90
37646;DHT22;23489;49.600;6.138;2023-07-31T14:24:09;20.50;99.90
37646;DHT22;23489;49.600;6.138;2023-07-31T14:26:35;20.70;99.90
37646;DHT22;23489;49.600;6.138;2023-07-31T14:29:01;20.80;99.90
37646;DHT22;23489;49.600;6.138;2023-07-31T14:31:26;20.90;99.90
37646;DHT22;23489;49.600;6.138;2023-07-31T14:33:52;21.00;99.90
37646;DHT22;23489;49.600;6.138;2023-07-31T14:36:17;20.90;99.90
37646;DHT22;23489;49.600;6.138;2023-07-31T14:38:43;20.80;99.90
37646;DHT22;23489;49.600;6.138;2023-07-31T14:41:08;20.80;99.90
37646;DHT22;23489;49.600;6.138;2023-07-31T14:43:34;20.80;99.90
37646;DHT22;23489;49.600;6.138;2023-07-31T14:45:59;20.70;99.90
37646;DHT22;23489;49.600;6.138;2023-07-31T14:48:25;20.60;99.90
37646;DHT22;23489;49.600;6.138;2023-07-31T14:50:51;20.30;99.90
37646;DHT22;23489;49.600;6.138;2023-07-31T14:53:17;20.00;99.90
37646;DHT22;23489;49.600;6.138;2023-07-31T14:55:42;19.90;99.90
37646;DHT22;23489;49.600;6.138;2023-07-31T14:58:08;19.60;99.90
37646;DHT22;23489;49.600;6.138;2023-07-31T15:00:36;19.50;99.90
37646;DHT22;23489;49.600;6.138;2023-07-31T15:03:02;19.30;99.90
37646;DHT22;23489;49.600;6.138;2023-07-31T15:05:27;19.20;99.90
37646;DHT22;23489;49.600;6.138;2023-07-31T15:07:53;19.10;99.90
37646;DHT22;23489;49.600;6.138;2023-07-31T15:10:18;19.00;99.90
37646;DHT22;23489;49.600;6.138;2023-07-31T15:12:44;19.00;99.90
37646;DHT22;23489;49.600;6.138;2023-07-31T15:15:09;18.90;99.90
37646;DHT22;23489;49.600;6.138;2023-07-31T15:17:35;18.90;99.90
37646;DHT22;23489;49.600;6.138;2023-07-31T15:20:01;18.90;99.90
37646;DHT22;23489;49.600;6.138;2023-07-31T15:22:26;19.00;99.90
37646;DHT22;23489;49.600;6.138;2023-07-31T15:24:52;19.00;99.90
37646;DHT22;23489;49.600;6.138;2023-07-31T15:27:18;18.90;99.90
37646;DHT22;23489;49.600;6.138;2023-07-31T15:29:43;18.90;99.90
37646;DHT22;23489;49.600;6.138;2023-07-31T15:32:09;18.90;99.90
37646;DHT22;23489;49.600;6.138;2023-07-31T15:34:34;18.90;99.90